createdAt,value
2018-08-28T00:01:38.593Z,99671.81
2018-08-28T00:04:07.685Z,99674.14
2018-08-28T00:06:36.733Z,99679.61
2018-08-28T00:09:05.876Z,99680.24
2018-08-28T00:11:34.893Z,99684.09
2018-08-28T00:14:04.026Z,99685.17
2018-08-28T00:16:32.983Z,99689.28
2018-08-28T00:19:01.946Z,99693.13
2018-08-28T00:21:30.904Z,99690.02
2018-08-28T00:23:59.984Z,99691.08
2018-08-28T00:26:29.054Z,99686.11
2018-08-28T00:28:58.024Z,99690.56
2018-08-28T00:31:27.025Z,99690.75
2018-08-28T00:33:56.059Z,99693.48
2018-08-28T00:36:25.044Z,99694.55
2018-08-28T00:38:54.102Z,99697.00
2018-08-28T00:41:23.194Z,99696.13
2018-08-28T00:43:52.221Z,99692.31
2018-08-28T00:46:21.227Z,99698.30
2018-08-28T00:48:50.460Z,99695.52
2018-08-28T00:51:19.425Z,99693.23
2018-08-28T00:53:48.440Z,99694.23
2018-08-28T00:56:17.465Z,99686.33
2018-08-28T00:58:46.630Z,99691.21
2018-08-28T01:01:15.602Z,99698.56
2018-08-28T01:03:44.624Z,99696.02
2018-08-28T01:06:13.621Z,99696.61
2018-08-28T01:08:42.724Z,99691.09
2018-08-28T01:11:11.753Z,99694.59
2018-08-28T01:13:40.827Z,99693.48
2018-08-28T01:16:09.943Z,99694.61
2018-08-28T01:18:38.897Z,99696.51
2018-08-28T01:21:07.913Z,99698.75
2018-08-28T01:23:36.965Z,99701.00
2018-08-28T01:26:06.533Z,99700.48
2018-08-28T01:28:35.617Z,99698.80
2018-08-28T01:31:04.651Z,99697.98
2018-08-28T01:33:33.755Z,99692.80
2018-08-28T01:36:02.744Z,99692.38
2018-08-28T01:38:31.813Z,99691.80
2018-08-28T01:41:00.841Z,99694.64
2018-08-28T01:43:33.045Z,99694.73
2018-08-28T01:46:02.126Z,99696.94
2018-08-28T01:48:31.152Z,99706.81
2018-08-28T01:51:00.261Z,99705.25
2018-08-28T01:53:29.332Z,99704.77
2018-08-28T01:55:58.284Z,99705.89
2018-08-28T01:58:27.258Z,99695.84
2018-08-28T02:00:56.209Z,99707.46
2018-08-28T02:03:25.186Z,99706.92
2018-08-28T02:05:54.223Z,99707.94
2018-08-28T02:08:23.374Z,99705.00
2018-08-28T02:10:52.364Z,99705.25
2018-08-28T02:13:21.523Z,99715.64
2018-08-28T02:15:50.432Z,99711.25
2018-08-28T02:18:19.461Z,99711.55
2018-08-28T02:20:48.435Z,99713.74
2018-08-28T02:23:17.432Z,99712.93
2018-08-28T02:25:46.540Z,99717.60
2018-08-28T02:28:15.504Z,99712.52
2018-08-28T02:30:44.582Z,99716.56
2018-08-28T02:33:13.712Z,99714.07
2018-08-28T02:35:42.746Z,99718.64
2018-08-28T02:38:11.736Z,99719.24
2018-08-28T02:40:40.744Z,99721.83
2018-08-28T02:43:09.765Z,99723.69
2018-08-28T02:45:38.869Z,99722.08
2018-08-28T02:48:07.897Z,99727.01
2018-08-28T02:50:37.032Z,99723.20
2018-08-28T02:53:05.998Z,99727.01
2018-08-28T02:55:34.973Z,99722.61
2018-08-28T02:58:04.009Z,99725.83
2018-08-28T03:00:33.029Z,99732.67
2018-08-28T03:03:02.093Z,99721.15
2018-08-28T03:05:31.018Z,99730.42
2018-08-28T03:08:00.152Z,99737.02
2018-08-28T03:10:29.234Z,99731.49
2018-08-28T03:12:58.270Z,99734.64
2018-08-28T03:15:27.376Z,99736.55
2018-08-28T03:17:56.414Z,99738.19
2018-08-28T03:20:25.429Z,99742.96
2018-08-28T03:22:54.460Z,99745.14
2018-08-28T03:25:23.508Z,99748.65
2018-08-28T03:27:52.487Z,99748.13
2018-08-28T03:30:21.446Z,99747.58
2018-08-28T03:32:50.594Z,99744.56
2018-08-28T03:35:19.617Z,99746.98
2018-08-28T03:37:48.578Z,99747.17
2018-08-28T03:40:17.711Z,99755.91
2018-08-28T03:42:46.725Z,99756.14
2018-08-28T03:45:15.693Z,99762.42
2018-08-28T03:47:44.636Z,99768.82
2018-08-28T03:50:13.664Z,99772.33
2018-08-28T03:52:42.728Z,99785.77
2018-08-28T03:55:11.677Z,99782.50
2018-08-28T03:57:40.640Z,99786.90
2018-08-28T04:00:09.648Z,99785.64
2018-08-28T04:02:38.643Z,99785.34
2018-08-28T04:05:07.952Z,99788.37
2018-08-28T04:07:37.028Z,99789.23
2018-08-28T04:10:06.368Z,99789.52
2018-08-28T04:12:35.464Z,99796.87
2018-08-28T04:15:04.468Z,99794.38
2018-08-28T04:17:37.760Z,99795.15
2018-08-28T04:20:06.785Z,99800.53
2018-08-28T04:22:35.787Z,99798.44
2018-08-28T04:25:04.806Z,99806.95
2018-08-28T04:27:33.818Z,99806.12
2018-08-28T04:30:02.860Z,99809.36
2018-08-28T04:32:31.840Z,99814.08
2018-08-28T04:35:00.857Z,99815.95
2018-08-28T04:37:30.001Z,99822.27
2018-08-28T04:39:59.436Z,99823.05
2018-08-28T04:42:28.432Z,99823.55
2018-08-28T04:44:57.376Z,99825.16
2018-08-28T04:47:26.485Z,99825.54
2018-08-28T04:49:55.742Z,99828.36
2018-08-28T04:52:24.880Z,99819.75
2018-08-28T04:54:53.931Z,99822.78
2018-08-28T04:57:22.977Z,99821.68
2018-08-28T04:59:52.063Z,99819.88
2018-08-28T05:02:21.061Z,99821.50
2018-08-28T05:04:50.157Z,99823.19
2018-08-28T05:07:19.546Z,99823.19
2018-08-28T05:09:48.569Z,99824.96
2018-08-28T05:12:17.597Z,99830.92
2018-08-28T05:14:46.554Z,99831.77
2018-08-28T05:17:15.584Z,99828.80
2018-08-28T05:19:44.645Z,99834.21
2018-08-28T05:22:13.792Z,99837.83
2018-08-28T05:24:42.796Z,99836.71
2018-08-28T05:27:11.815Z,99845.33
2018-08-28T05:29:40.815Z,99839.31
2018-08-28T05:32:09.812Z,99835.37
2018-08-28T05:34:38.902Z,99843.38
2018-08-28T05:37:08.085Z,99799.03
2018-08-28T05:39:37.249Z,99845.47
2018-08-28T05:42:06.336Z,99841.92
2018-08-28T05:44:35.281Z,99841.38
2018-08-28T05:47:04.312Z,99847.51
2018-08-28T05:49:33.292Z,99848.95
2018-08-28T05:52:02.314Z,99850.75
2018-08-28T05:54:31.282Z,99851.19
2018-08-28T05:57:00.352Z,99854.09
2018-08-28T05:59:29.316Z,99855.95
2018-08-28T06:01:58.272Z,99855.34
2018-08-28T06:04:27.249Z,99852.88
2018-08-28T06:06:56.333Z,99860.59
2018-08-28T06:09:25.317Z,99862.45
2018-08-28T06:11:54.326Z,99863.11
2018-08-28T06:14:23.421Z,99868.09
2018-08-28T06:16:52.380Z,99866.67
2018-08-28T06:19:21.338Z,99873.13
2018-08-28T06:21:50.384Z,99879.23
2018-08-28T06:24:19.344Z,99884.41
2018-08-28T06:26:48.324Z,99881.81
2018-08-28T06:29:17.344Z,99890.46
2018-08-28T06:31:46.554Z,99882.84
2018-08-28T06:34:15.533Z,99885.38
2018-08-28T06:36:44.492Z,99890.98
2018-08-28T06:39:13.529Z,99888.70
2018-08-28T06:41:42.557Z,99895.63
2018-08-28T06:44:11.761Z,99902.09
2018-08-28T06:46:40.728Z,99903.77
2018-08-28T06:49:09.756Z,99913.80
2018-08-28T06:51:38.808Z,99910.91
2018-08-28T06:54:07.769Z,99912.98
2018-08-28T06:56:36.776Z,99920.02
2018-08-28T06:59:05.842Z,99926.29
2018-08-28T07:01:34.878Z,99929.03
2018-08-28T07:04:04.069Z,99935.08
2018-08-28T07:06:33.164Z,99937.41
2018-08-28T07:09:02.167Z,99944.50
2018-08-28T07:11:31.129Z,99940.73
2018-08-28T07:14:00.099Z,99949.59
2018-08-28T07:16:29.050Z,99947.67
2018-08-28T07:18:58.157Z,99956.39
2018-08-28T07:21:27.108Z,99955.49
2018-08-28T07:23:56.153Z,99958.63
2018-08-28T07:26:25.124Z,99953.43
2018-08-28T07:28:54.189Z,99949.38
2018-08-28T07:31:23.431Z,99953.11
2018-08-28T07:33:52.352Z,99951.48
2018-08-28T07:36:21.362Z,99948.88
2018-08-28T07:38:50.360Z,99944.56
2018-08-28T07:41:19.385Z,99946.30
2018-08-28T07:43:48.360Z,99944.12
2018-08-28T07:46:17.395Z,99956.00
2018-08-28T07:48:46.439Z,99954.06
2018-08-28T07:51:15.515Z,99947.95
2018-08-28T07:53:44.511Z,99941.63
2018-08-28T07:56:13.554Z,99943.47
2018-08-28T07:58:42.544Z,99934.03
2018-08-28T08:01:11.775Z,99939.59
2018-08-28T08:03:40.744Z,99942.81
2018-08-28T08:06:09.855Z,99937.45
2018-08-28T08:08:38.812Z,99936.99
2018-08-28T08:11:07.821Z,99937.52
2018-08-28T08:13:36.848Z,99941.73
2018-08-28T08:16:05.837Z,99935.38
2018-08-28T08:18:34.870Z,99932.61
2018-08-28T08:21:03.844Z,99938.95
2018-08-28T08:23:32.933Z,99936.68
2018-08-28T08:26:01.935Z,99933.11
2018-08-28T08:28:30.884Z,99932.02
2018-08-28T08:31:00.119Z,99931.39
2018-08-28T08:33:29.062Z,99935.80
2018-08-28T08:35:58.044Z,99934.06
2018-08-28T08:38:27.012Z,99926.55
2018-08-28T08:40:56.162Z,99927.68
2018-08-28T08:43:25.192Z,99919.77
2018-08-28T08:45:54.217Z,99922.01
2018-08-28T08:48:23.253Z,99920.76
2018-08-28T08:50:52.303Z,99918.34
2018-08-28T08:53:21.264Z,99918.89
2018-08-28T08:55:50.266Z,99918.06
2018-08-28T08:58:19.309Z,99913.38
2018-08-28T09:00:48.271Z,99915.84
2018-08-28T09:03:17.221Z,99917.53
2018-08-28T09:05:46.257Z,99918.09
2018-08-28T09:08:15.269Z,99921.93
2018-08-28T09:10:44.240Z,99923.57
2018-08-28T09:13:13.241Z,99922.44
2018-08-28T09:15:42.276Z,99925.37
2018-08-28T09:18:11.350Z,99920.60
2018-08-28T09:20:40.346Z,99919.92
2018-08-28T09:23:09.333Z,99920.17
2018-08-28T09:25:38.276Z,99922.13
2018-08-28T09:28:07.366Z,99920.50
2018-08-28T09:30:36.335Z,99922.10
2018-08-28T09:33:05.423Z,99922.09
2018-08-28T09:35:34.436Z,99926.55
2018-08-28T09:38:03.413Z,99924.91
2018-08-28T09:40:32.436Z,99924.39
2018-08-28T09:43:01.457Z,99922.77
2018-08-28T09:45:30.538Z,99919.45
2018-08-28T09:47:59.520Z,99926.35
2018-08-28T09:50:28.690Z,99931.30
2018-08-28T09:52:57.652Z,99926.91
2018-08-28T09:55:26.612Z,99932.67
2018-08-28T09:57:55.581Z,99935.98
2018-08-28T10:00:27.449Z,99928.02
2018-08-28T10:02:57.069Z,99935.72
2018-08-28T10:05:26.273Z,99939.29
2018-08-28T10:07:55.338Z,99937.33
2018-08-28T10:10:24.417Z,99938.42
2018-08-28T10:12:53.498Z,99936.23
2018-08-28T10:15:22.496Z,99935.69
2018-08-28T10:17:51.505Z,99936.23
2018-08-28T10:20:20.521Z,99935.40
2018-08-28T10:25:17.283Z,99933.80
2018-08-28T10:27:46.272Z,99926.30
2018-08-28T10:30:15.419Z,99920.17
2018-08-28T10:32:44.413Z,99924.50
2018-08-28T10:35:13.352Z,99915.59
2018-08-28T10:37:42.366Z,99924.34
2018-08-28T10:40:11.370Z,99912.65
2018-08-28T10:42:40.440Z,99914.61
2018-08-28T10:45:09.489Z,99915.91
2018-08-28T10:47:38.581Z,99907.88
2018-08-28T10:50:07.525Z,99901.97
2018-08-28T10:52:36.637Z,99909.28
2018-08-28T10:55:05.600Z,99908.02
2018-08-28T10:57:34.633Z,99906.26
2018-08-28T11:00:03.641Z,99909.20
2018-08-28T11:02:32.654Z,99902.19
2018-08-28T11:05:01.729Z,99903.23
2018-08-28T11:07:30.681Z,99908.06
2018-08-28T11:09:59.641Z,99904.56
2018-08-28T11:12:29.379Z,99898.32
2018-08-28T11:14:59.539Z,99896.78
2018-08-28T11:17:28.554Z,99889.38
2018-08-28T11:19:57.968Z,99890.61
2018-08-28T11:22:27.113Z,99886.89
2018-08-28T11:24:56.053Z,99884.50
2018-08-28T11:27:25.010Z,99883.36
2018-08-28T11:29:53.964Z,99874.77
2018-08-28T11:32:22.908Z,99871.95
2018-08-28T11:34:51.880Z,99865.48
2018-08-28T11:37:20.872Z,99869.52
2018-08-28T11:39:49.936Z,99870.92
2018-08-28T11:42:18.945Z,99868.84
2018-08-28T11:44:47.915Z,99858.30
2018-08-28T11:47:16.953Z,99851.99
2018-08-28T11:49:45.924Z,99853.08
2018-08-28T11:52:14.901Z,99839.51
2018-08-28T11:54:43.868Z,99838.40
2018-08-28T11:57:12.990Z,99835.20
2018-08-28T11:59:42.080Z,99828.50
2018-08-28T12:02:11.130Z,99829.86
2018-08-28T12:04:40.153Z,99824.61
2018-08-28T12:07:09.565Z,99825.75
2018-08-28T12:09:38.600Z,99823.56
2018-08-28T12:12:07.565Z,99819.29
2018-08-28T12:14:36.653Z,99818.80
2018-08-28T12:17:05.604Z,99823.14
2018-08-28T12:19:34.607Z,99821.21
2018-08-28T12:22:03.613Z,99820.02
2018-08-28T12:24:32.636Z,99816.73
2018-08-28T12:27:01.677Z,99815.12
2018-08-28T12:29:30.713Z,99808.16
2018-08-28T12:31:59.705Z,99813.35
2018-08-28T12:34:28.728Z,99811.63
2018-08-28T12:36:57.874Z,99815.06
2018-08-28T12:39:26.789Z,99807.86
2018-08-28T12:41:55.748Z,99812.72
2018-08-28T12:44:24.829Z,99810.48
2018-08-28T12:46:54.186Z,99800.66
2018-08-28T12:49:23.217Z,99804.42
2018-08-28T12:51:52.241Z,99801.42
2018-08-28T12:54:21.294Z,99802.53
2018-08-28T12:56:50.316Z,99802.94
2018-08-28T12:59:19.261Z,99802.18
2018-08-28T13:01:48.285Z,99797.31
2018-08-28T13:04:17.289Z,99794.93
2018-08-28T13:06:46.253Z,99791.68
2018-08-28T13:09:15.278Z,99795.13
2018-08-28T13:11:44.232Z,99792.27
2018-08-28T13:14:13.262Z,99783.98
2018-08-28T13:16:42.303Z,99783.98
2018-08-28T13:19:11.438Z,99786.98
2018-08-28T13:21:40.444Z,99783.27
2018-08-28T13:24:09.412Z,99782.36
2018-08-28T13:26:38.440Z,99783.70
2018-08-28T13:29:07.466Z,99783.28
2018-08-28T13:31:36.427Z,99778.41
2018-08-28T13:34:05.452Z,99778.42
2018-08-28T13:36:34.526Z,99777.94
2018-08-28T13:39:03.632Z,99781.70
2018-08-28T13:41:32.667Z,99780.39
2018-08-28T13:44:01.718Z,99787.98
2018-08-28T13:46:30.681Z,99780.91
2018-08-28T13:48:59.791Z,99778.84
2018-08-28T13:51:28.976Z,99781.11
2018-08-28T13:53:58.080Z,99784.06
2018-08-28T13:56:27.070Z,99783.99
2018-08-28T13:58:56.086Z,99784.17
2018-08-28T14:01:25.284Z,99780.28
2018-08-28T14:03:54.337Z,99782.38
2018-08-28T14:06:23.381Z,99782.16
2018-08-28T14:08:52.470Z,99782.11
2018-08-28T14:11:21.601Z,99780.64
2018-08-28T14:13:50.624Z,99775.06
2018-08-28T14:16:19.692Z,99779.34
2018-08-28T14:18:48.790Z,99770.05
2018-08-28T14:21:17.776Z,99769.56
2018-08-28T14:23:46.809Z,99768.56
2018-08-28T14:26:15.885Z,99763.95
2018-08-28T14:28:45.027Z,99771.09
2018-08-28T14:31:14.112Z,99772.82
2018-08-28T14:33:43.146Z,99775.05
2018-08-28T14:36:12.160Z,99771.63
2018-08-28T14:38:41.158Z,99770.05
2018-08-28T14:41:10.208Z,99771.30
2018-08-28T14:43:39.220Z,99775.01
2018-08-28T14:46:08.828Z,99765.19
2018-08-28T14:48:38.094Z,99767.34
2018-08-28T14:51:07.796Z,99765.64
2018-08-28T14:53:36.827Z,99761.35
2018-08-28T14:56:05.914Z,99764.66
2018-08-28T14:58:34.901Z,99769.11
2018-08-28T15:01:03.957Z,99760.75
2018-08-28T15:03:32.996Z,99755.80
2018-08-28T15:06:01.993Z,99761.38
2018-08-28T15:08:30.975Z,99757.83
2018-08-28T15:10:59.965Z,99752.84
2018-08-28T15:13:29.085Z,99757.19
2018-08-28T15:15:58.138Z,99763.88
2018-08-28T15:18:27.113Z,99760.30
2018-08-28T15:20:56.275Z,99764.54
2018-08-28T15:23:25.183Z,99764.89
2018-08-28T15:25:54.188Z,99761.38
2018-08-28T15:28:23.167Z,99760.55
2018-08-28T15:30:52.168Z,99763.63
2018-08-28T15:33:21.185Z,99765.91
2018-08-28T15:35:50.389Z,99758.98
2018-08-28T15:38:19.481Z,99762.10
2018-08-28T15:40:48.509Z,99760.18
2018-08-28T15:43:17.551Z,99760.18
2018-08-28T15:45:46.609Z,99756.41
2018-08-28T15:48:15.590Z,99760.34
2018-08-28T15:50:44.629Z,99757.34
2018-08-28T15:53:13.656Z,99765.65
2018-08-28T15:55:42.926Z,99769.02
2018-08-28T15:58:12.525Z,99767.64
2018-08-28T16:00:41.586Z,99767.70
2018-08-28T16:03:10.582Z,99765.83
2018-08-28T16:05:39.595Z,99769.14
2018-08-28T16:08:08.669Z,99773.83
2018-08-28T16:10:37.678Z,99775.77
2018-08-28T16:13:06.799Z,99777.73
2018-08-28T16:15:35.793Z,99783.81
2018-08-28T16:18:04.925Z,99779.70
2018-08-28T16:20:34.257Z,99781.64
2018-08-28T16:23:05.800Z,99786.08
2018-08-28T16:25:34.785Z,99788.59
2018-08-28T16:28:03.760Z,99792.20
2018-08-28T16:30:32.774Z,99792.22
2018-08-28T16:33:01.769Z,99790.55
2018-08-28T16:35:30.820Z,99792.76
2018-08-28T16:37:59.884Z,99794.98
2018-08-28T16:40:28.853Z,99799.11
2018-08-28T16:42:57.826Z,99803.81
2018-08-28T16:45:26.767Z,99810.39
2018-08-28T16:47:55.776Z,99810.67
2018-08-28T16:50:24.866Z,99813.41
2018-08-28T16:52:54.019Z,99819.19
2018-08-28T16:55:23.046Z,99811.16
2018-08-28T16:57:52.032Z,99817.50
2018-08-28T17:00:21.087Z,99819.94
2018-08-28T17:02:50.083Z,99820.75
2018-08-28T17:05:19.172Z,99827.31
2018-08-28T17:07:48.155Z,99825.33
2018-08-28T17:10:17.243Z,99832.20
2018-08-28T17:12:46.210Z,99829.07
2018-08-28T17:15:15.185Z,99826.31
2018-08-28T17:17:44.180Z,99832.87
2018-08-28T17:20:13.169Z,99838.59
2018-08-28T17:22:42.289Z,99841.84
2018-08-28T17:25:11.381Z,99846.47
2018-08-28T17:27:40.533Z,99853.05
2018-08-28T17:30:09.634Z,99823.25
2018-08-28T17:32:38.601Z,99841.73
2018-08-28T17:35:07.970Z,99843.95
2018-08-28T17:37:37.105Z,99848.58
2018-08-28T17:40:06.349Z,99853.22
2018-08-28T17:42:35.374Z,99853.22
2018-08-28T17:45:04.501Z,99855.39
2018-08-28T17:47:33.565Z,99862.23
2018-08-28T17:50:02.552Z,99859.48
2018-08-28T17:52:31.569Z,99861.95
2018-08-28T17:55:00.586Z,99861.95
2018-08-28T17:57:29.647Z,99857.48
2018-08-28T17:59:58.662Z,99863.52
2018-08-28T18:02:27.755Z,99860.75
2018-08-28T18:04:56.796Z,99861.55
2018-08-28T18:07:25.813Z,99861.55
2018-08-28T18:09:54.846Z,99864.50
2018-08-28T18:12:23.924Z,99868.33
2018-08-28T18:14:52.953Z,99864.23
2018-08-28T18:17:21.983Z,99860.64
2018-08-28T18:19:50.968Z,99875.19
2018-08-28T18:22:20.121Z,99869.95
2018-08-28T18:24:49.142Z,99871.27
2018-08-28T18:27:18.114Z,99873.47
2018-08-28T18:29:47.139Z,99873.44
2018-08-28T18:32:16.259Z,99870.38
2018-08-28T18:34:45.350Z,99872.83
2018-08-28T18:37:14.329Z,99874.17
2018-08-28T18:39:43.377Z,99863.70
2018-08-28T18:42:12.467Z,99869.48
2018-08-28T18:44:41.574Z,99870.05
2018-08-28T18:47:11.327Z,99864.78
2018-08-28T18:49:40.493Z,99864.50
2018-08-28T18:52:09.513Z,99862.05
2018-08-28T18:54:38.493Z,99859.30
2018-08-28T18:57:07.537Z,99855.19
2018-08-28T18:59:36.775Z,99864.21
2018-08-28T19:02:05.876Z,99861.47
2018-08-28T19:04:34.901Z,99865.94
2018-08-28T19:07:04.075Z,99856.63
2018-08-28T19:09:33.093Z,99863.48
2018-08-28T19:12:02.133Z,99861.53
2018-08-28T19:14:31.202Z,99861.02
2018-08-28T19:17:00.294Z,99867.84
2018-08-28T19:19:29.318Z,99864.78
2018-08-28T19:21:58.340Z,99866.95
2018-08-28T19:24:27.387Z,99868.07
2018-08-28T19:26:56.360Z,99869.70
2018-08-28T19:29:25.389Z,99870.27
2018-08-28T19:31:54.478Z,99869.25
2018-08-28T19:34:23.638Z,99874.73
2018-08-28T19:36:52.613Z,99870.91
2018-08-28T19:39:21.650Z,99874.74
2018-08-28T19:41:50.761Z,99871.17
2018-08-28T19:44:19.779Z,99869.19
2018-08-28T19:46:48.729Z,99871.45
2018-08-28T19:49:17.762Z,99869.80
2018-08-28T19:51:46.799Z,99866.52
2018-08-28T19:54:15.897Z,99865.14
2018-08-28T19:56:45.066Z,99867.05
2018-08-28T19:59:14.104Z,99870.02
2018-08-28T20:01:43.074Z,99873.08
2018-08-28T20:04:12.193Z,99873.08
2018-08-28T20:06:41.204Z,99869.48
2018-08-28T20:09:10.235Z,99871.94
2018-08-28T20:11:39.223Z,99871.36
2018-08-28T20:14:08.317Z,99879.04
2018-08-28T20:16:37.432Z,99878.17
2018-08-28T20:19:06.587Z,99880.99
2018-08-28T20:21:35.720Z,99887.37
2018-08-28T20:24:04.897Z,99887.63
2018-08-28T20:26:33.880Z,99889.55
2018-08-28T20:29:03.071Z,99890.91
2018-08-28T20:31:32.047Z,99890.62
2018-08-28T20:34:01.085Z,99889.19
2018-08-28T20:36:30.169Z,99892.75
2018-08-28T20:38:59.200Z,99889.44
2018-08-28T20:41:28.198Z,99897.05
2018-08-28T20:43:57.157Z,99902.80
2018-08-28T20:46:26.185Z,99898.35
2018-08-28T20:48:55.176Z,99906.29
2018-08-28T20:51:24.206Z,99904.13
2018-08-28T20:53:53.176Z,99902.17
2018-08-28T20:56:22.148Z,99904.09
2018-08-28T20:58:51.181Z,99898.59
2018-08-28T21:01:20.149Z,99899.64
2018-08-28T21:03:49.145Z,99903.72
2018-08-28T21:06:18.247Z,99900.19
2018-08-28T21:08:47.388Z,99912.56
2018-08-28T21:11:16.420Z,99904.05
2018-08-28T21:14:48.438Z,99909.56
2018-08-28T21:17:17.396Z,99907.51
2018-08-28T21:19:46.478Z,99910.71
2018-08-28T21:22:15.488Z,99908.75
2018-08-28T21:24:44.454Z,99914.32
2018-08-28T21:27:13.545Z,99909.63
2018-08-28T21:29:42.524Z,99906.60
2018-08-28T21:32:11.569Z,99903.81
2018-08-28T21:34:40.544Z,99906.84
2018-08-28T21:37:09.780Z,99902.20
2018-08-28T21:39:38.835Z,99896.21
2018-08-28T21:42:07.878Z,99893.33
2018-08-28T21:44:36.899Z,99893.11
2018-08-28T21:47:05.912Z,99886.22
2018-08-28T21:49:35.002Z,99891.20
2018-08-28T21:52:04.036Z,99893.16
2018-08-28T21:54:33.132Z,99891.82
2018-08-28T21:57:02.091Z,99888.58
2018-08-28T21:59:31.050Z,99888.90
2018-08-28T22:02:00.028Z,99883.48
2018-08-28T22:04:29.018Z,99889.80
2018-08-28T22:07:03.165Z,99889.00
2018-08-28T22:09:32.144Z,99886.73
2018-08-28T22:12:01.194Z,99882.30
2018-08-28T22:14:30.160Z,99887.78
2018-08-28T22:16:59.259Z,99885.61
2018-08-28T22:19:28.336Z,99880.66
2018-08-28T22:21:57.425Z,99887.81
2018-08-28T22:24:26.422Z,99891.39
2018-08-28T22:26:55.370Z,99896.62
2018-08-28T22:29:24.357Z,99897.77
2018-08-28T22:31:53.400Z,99896.44
2018-08-28T22:34:22.441Z,99898.38
2018-08-28T22:36:51.472Z,99898.34
2018-08-28T22:39:20.553Z,99901.66
2018-08-28T22:41:49.613Z,99910.41
2018-08-28T22:44:18.573Z,99910.30
2018-08-28T22:46:47.620Z,99905.24
2018-08-28T22:49:16.669Z,99912.86
2018-08-28T22:51:45.728Z,99908.70
2018-08-28T22:54:14.811Z,99907.55
2018-08-28T22:56:43.877Z,99905.02
2018-08-28T22:59:12.873Z,99903.57
2018-08-28T23:01:41.883Z,99910.55
2018-08-28T23:04:10.977Z,99907.95
2018-08-28T23:06:40.123Z,99906.66
2018-08-28T23:09:09.285Z,99909.34
2018-08-28T23:11:38.307Z,99907.55
2018-08-28T23:14:07.352Z,99907.11
2018-08-28T23:16:36.324Z,99903.40
2018-08-28T23:19:05.369Z,99906.28
2018-08-28T23:21:34.459Z,99909.31
2018-08-28T23:24:03.431Z,99903.09
2018-08-28T23:26:32.452Z,99904.15
2018-08-28T23:29:01.468Z,99901.27
2018-08-28T23:31:30.473Z,99896.31
2018-08-28T23:33:59.562Z,99895.14
2018-08-28T23:36:28.645Z,99898.46
2018-08-28T23:38:58.613Z,99902.23
2018-08-28T23:41:27.702Z,99902.47
2018-08-28T23:43:56.805Z,99897.53
2018-08-28T23:46:25.831Z,99899.68
2018-08-28T23:48:54.898Z,99895.87
2018-08-28T23:51:23.888Z,99891.47
2018-08-28T23:53:52.912Z,99902.93
2018-08-28T23:56:21.937Z,99891.89
2018-08-28T23:58:50.916Z,99900.20
